AirNav   Air Wisconsin pilot careers
 
 709 users online  

FD58 St Luke's Hospital Heliport
Jacksonville, Florida, USA

GOING TO JACKSONVILLE?


FAA INFORMATION EFFECTIVE 01 FEBRUARY 2018

Location

FAA Identifier: FD58
Lat/Long: 30-15-17.7100N / 081-34-59.0800W
30-15.295167N / 081-34.984667W
30.2549194 / -81.5830778
(estimated)
Elevation: 25 ft. / 8 m (estimated)
Variation: 03W (1986)
Time zone: UTC -5 (UTC -4 during Daylight Saving Time)
Zip code: 32216

Heliport Operations

Heliport use: Private use. Permission required prior to landing
Activation date: 03/1986
Control tower: no
ARTCC: JACKSONVILLE CENTER
FSS: GAINESVILLE FLIGHT SERVICE STATION
Attendance: CONTINUOUS
Wind indicator: lighted
Segmented circle: no

Heliport Communications

WX ASOS at CRG (6 nm NE): PHONE 904-646-4670
WX AWOS-3 at HEG (12 nm W): 119.275 (904-695-0334)
WX ASOS at JAX (15 nm N): PHONE 904-741-4304
WX AWOS-3 at VQQ (15 nm W): 125.275 (904-778-6934)

Nearby radio navigation aids

VOR radial/distance  VOR name  Freq  Var
CRGr220/6.3CRAIG VORTAC114.5003W
VQQr084/(16.2)CECIL VOR117.9003W
SGJr330/22.2ST AUGUSTINE VOR/DME109.4006W

 
NDB name  Hdg/Dist  Freq  Var  ID
REYNOLDS020/17.733807WRYD .-. -.-- -..

Heliport Services

Runway Information

Helipad H1

Dimensions: 60 x 60 ft. / 18 x 18 m
Surface: concrete
Latitude: 30-15.295167N
Longitude: 081-34.984667W
Elevation: 25.0 ft.
Traffic pattern: leftleft

Heliport Ownership and Management from official FAA records

Ownership: Privately-owned
Owner: ST. LUKE'S HOSPITAL
4201 BELFORT RD.
JACKSONVILLE, FL 32216
Phone 904-296-3700
Manager: GARY P. PEZALL
4201 BELFORT RD.
JACKSONVILLE, FL 32216
Phone 904-296-3749

Instrument Procedures

There are no published instrument procedures at FD58.

Some nearby airports with instrument procedures:

KNIP - Jacksonville Naval Air Station (Towers Field) (5 nm W)
KCRG - Jacksonville Executive Airport at Craig (6 nm NE)
KNRB - Mayport Naval Station (Adm David L. McDonald Field) (12 nm NE)
KHEG - Herlong Recreational Airport (12 nm W)
KJAX - Jacksonville International Airport (15 nm N)
KVQQ - Cecil Airport (15 nm W)
 
Loc | Ops | Rwys | IFR | FBO | Links
Com | Nav | Svcs | Stats | Notes

AirNav Hotels Sweepstakes
 
Area around FD58 (St Luke's Hospital Heliport)
 
Road maps at: MapQuest Bing Google
 
Aerial photo
No photo
 
Sectional chart

 
Airport distance calculator
Flying to St Luke's Hospital Heliport? Find the distance to fly.

From to FD58

Sunrise and sunset
Times for 24-Feb-2018
 Local
(UTC-5)
 Zulu
(UTC)
Morning civil twilight06:3511:35
Sunrise06:5911:59
Sunset18:2023:20
Evening civil twilight18:4523:45

Current date and time
Zulu (UTC)  25-Feb-2018 04:36:23
Local (UTC-5)  24-Feb-2018 23:36:23
 
METAR
KNIP 
5nm SW 
250353Z 20004KT 10SM BKN055 BKN090 23/18 A3017 RMK AO2 SLP213 T02280178
KCRG 
6nm NE 
250353Z AUTO 21006KT 10SM SCT055 OVC085 22/19 A3017 RMK AO2 SLP214 T02220194 $
KNRB 
12nm NE 
250352Z AUTO 18009KT 10SM FEW060 BKN090 22/19 A3016 RMK AO2 SLP211 T02170189 $
KHEG 
12nm W 
250415Z AUTO 00000KT 10SM OVC039 22/18 A3019 RMK AO2
KJAX 
16nm N 
250356Z 21005KT 10SM FEW060 BKN090 21/18 A3017 RMK AO2 SLP215 T02060178
KVQQ 
16nm W 
250415Z AUTO 00000KT 10SM OVC038 21/19 A3017 RMK AO2
TAF
KNIP 
5nm SW 
2423/2523 19007KT 9999 SCT045 QNH3012INS BECMG 2500/2502 15010KT 9999 SCT035 SCT250 QNH3009INS BECMG 2504/2506 18008KT 9999 SCT035 BKN250 QNH3005INS T21/2509Z T28/2520Z FN00182
KCRG 
6nm NE 
241910Z 2419/2518 12010KT P6SM SCT045 FM250100 16005KT P6SM VCSH SCT040 BKN080 FM250900 17003KT 3SM BR SCT003 SCT050 FM251400 20007KT P6SM SCT030
KNRB 
12nm NE 
2423/2523 14014KT 9999 FEW035 QNH3012INS BECMG 2500/2502 15010KT 9999 SCT035 SCT250 QNH3009INS BECMG 2504/2506 18008KT 9999 SCT035 BKN250 QNH3005INST 21/2509Z T28/2520Z FN00182
KJAX 
16nm N 
241936Z 2420/2518 13010KT P6SM SCT045 FM250100 16005KT P6SM VCSH SCT040 BKN080 FM250900 17003KT 3SM BR SCT003 SCT050 FM251400 20007KT P6SM SCT030
KVQQ 
16nm W 
250247Z 2503/2524 15006KT P6SM VCSH BKN040 FM250400 18003KT P6SM FEW040 SCT120 FM250900 17003KT 3SM BR SCT003 SCT030 TEMPO 2509/2512 1SM BR FM251400 20007KT P6SM SCT030
NOTAMs
Click for the latest NOTAMs
NOTAMs are issued by the DoD/FAA and will open in a separate window not controlled by AirNav.

 

 
 

Would you like to see your business listed on this page?

 If your business provides an interesting product or service to pilots, flight crews, aircraft, or users of the St Luke's Hospital Heliport, you should consider listing it here.  To start the listing process, click on the button below
 
Add a business
 

Other Pages about St Luke's Hospital Heliport

Update a link
 
Copyright © AirNav, LLC. All rights reserved. Privacy Policy  Contact